sensor_id;sensor_type;location;lat;lon;timestamp;P1;durP1;ratioP1;P2;durP2;ratioP2
68089;SDS011;54880;50.986;6.990;2024-01-15T00:01:42;37.40;;;12.77;;
68089;SDS011;54880;50.986;6.990;2024-01-15T00:04:08;34.65;;;11.18;;
68089;SDS011;54880;50.986;6.990;2024-01-15T00:06:33;27.83;;;10.47;;
68089;SDS011;54880;50.986;6.990;2024-01-15T00:08:58;37.63;;;13.00;;
68089;SDS011;54880;50.986;6.990;2024-01-15T00:11:23;39.57;;;12.73;;
68089;SDS011;54880;50.986;6.990;2024-01-15T00:13:49;36.70;;;12.50;;
68089;SDS011;54880;50.986;6.990;2024-01-15T00:16:14;36.23;;;13.40;;
68089;SDS011;54880;50.986;6.990;2024-01-15T00:18:39;44.40;;;13.87;;
68089;SDS011;54880;50.986;6.990;2024-01-15T00:21:04;34.33;;;12.03;;
68089;SDS011;54880;50.986;6.990;2024-01-15T00:23:30;36.43;;;13.20;;
68089;SDS011;54880;50.986;6.990;2024-01-15T00:25:55;35.17;;;13.47;;
68089;SDS011;54880;50.986;6.990;2024-01-15T00:28:21;42.33;;;14.23;;
68089;SDS011;54880;50.986;6.990;2024-01-15T00:30:46;38.97;;;10.98;;
68089;SDS011;54880;50.986;6.990;2024-01-15T00:33:11;41.30;;;14.82;;
68089;SDS011;54880;50.986;6.990;2024-01-15T00:35:37;36.08;;;12.60;;
68089;SDS011;54880;50.986;6.990;2024-01-15T00:38:02;36.83;;;13.27;;
68089;SDS011;54880;50.986;6.990;2024-01-15T00:40:28;34.35;;;11.23;;
68089;SDS011;54880;50.986;6.990;2024-01-15T00:42:53;44.93;;;14.63;;
68089;SDS011;54880;50.986;6.990;2024-01-15T00:45:18;47.83;;;14.67;;
68089;SDS011;54880;50.986;6.990;2024-01-15T00:47:43;41.63;;;13.80;;
68089;SDS011;54880;50.986;6.990;2024-01-15T00:50:09;42.38;;;13.98;;
68089;SDS011;54880;50.986;6.990;2024-01-15T00:52:34;35.53;;;12.73;;
68089;SDS011;54880;50.986;6.990;2024-01-15T00:54:59;38.73;;;14.03;;
68089;SDS011;54880;50.986;6.990;2024-01-15T00:57:25;48.20;;;17.03;;
68089;SDS011;54880;50.986;6.990;2024-01-15T00:59:50;44.70;;;13.40;;
68089;SDS011;54880;50.986;6.990;2024-01-15T01:02:15;38.03;;;14.13;;
68089;SDS011;54880;50.986;6.990;2024-01-15T01:04:40;46.40;;;16.00;;
68089;SDS011;54880;50.986;6.990;2024-01-15T01:07:06;41.47;;;13.87;;
68089;SDS011;54880;50.986;6.990;2024-01-15T01:09:31;46.07;;;14.47;;
68089;SDS011;54880;50.986;6.990;2024-01-15T01:11:56;41.37;;;13.73;;
68089;SDS011;54880;50.986;6.990;2024-01-15T01:14:22;31.67;;;11.73;;
68089;SDS011;54880;50.986;6.990;2024-01-15T01:16:47;41.27;;;13.47;;
68089;SDS011;54880;50.986;6.990;2024-01-15T01:19:12;43.47;;;14.20;;
68089;SDS011;54880;50.986;6.990;2024-01-15T01:21:37;37.93;;;13.13;;
68089;SDS011;54880;50.986;6.990;2024-01-15T01:24:03;46.33;;;13.80;;
68089;SDS011;54880;50.986;6.990;2024-01-15T01:26:28;34.50;;;12.30;;
68089;SDS011;54880;50.986;6.990;2024-01-15T01:28:53;40.63;;;14.30;;
68089;SDS011;54880;50.986;6.990;2024-01-15T01:31:19;36.37;;;13.60;;
68089;SDS011;54880;50.986;6.990;2024-01-15T01:33:44;42.47;;;14.33;;
68089;SDS011;54880;50.986;6.990;2024-01-15T01:36:09;38.97;;;14.30;;
68089;SDS011;54880;50.986;6.990;2024-01-15T01:38:35;45.03;;;13.70;;
68089;SDS011;54880;50.986;6.990;2024-01-15T01:41:00;43.92;;;15.07;;
68089;SDS011;54880;50.986;6.990;2024-01-15T01:43:26;40.27;;;13.47;;
68089;SDS011;54880;50.986;6.990;2024-01-15T01:45:51;38.23;;;13.90;;
68089;SDS011;54880;50.986;6.990;2024-01-15T01:48:16;35.43;;;13.03;;
68089;SDS011;54880;50.986;6.990;2024-01-15T01:50:41;36.50;;;13.73;;
68089;SDS011;54880;50.986;6.990;2024-01-15T01:53:07;40.80;;;13.80;;
68089;SDS011;54880;50.986;6.990;2024-01-15T01:55:32;44.80;;;12.77;;
68089;SDS011;54880;50.986;6.990;2024-01-15T01:57:58;44.28;;;14.00;;
68089;SDS011;54880;50.986;6.990;2024-01-15T02:00:24;38.60;;;14.50;;
68089;SDS011;54880;50.986;6.990;2024-01-15T02:02:49;34.15;;;13.38;;
68089;SDS011;54880;50.986;6.990;2024-01-15T02:05:14;41.45;;;14.77;;
68089;SDS011;54880;50.986;6.990;2024-01-15T02:07:43;41.03;;;13.48;;
68089;SDS011;54880;50.986;6.990;2024-01-15T02:10:09;34.45;;;13.45;;
68089;SDS011;54880;50.986;6.990;2024-01-15T02:12:34;43.57;;;14.73;;
68089;SDS011;54880;50.986;6.990;2024-01-15T02:15:00;35.73;;;14.23;;
68089;SDS011;54880;50.986;6.990;2024-01-15T02:17:25;37.42;;;13.35;;
68089;SDS011;54880;50.986;6.990;2024-01-15T02:19:50;35.97;;;13.60;;
68089;SDS011;54880;50.986;6.990;2024-01-15T02:22:15;34.37;;;12.70;;
68089;SDS011;54880;50.986;6.990;2024-01-15T02:24:41;34.70;;;12.93;;
68089;SDS011;54880;50.986;6.990;2024-01-15T02:27:06;40.23;;;14.60;;
68089;SDS011;54880;50.986;6.990;2024-01-15T02:29:32;37.13;;;13.10;;
68089;SDS011;54880;50.986;6.990;2024-01-15T02:31:57;34.57;;;13.07;;
68089;SDS011;54880;50.986;6.990;2024-01-15T02:34:22;39.40;;;12.30;;
68089;SDS011;54880;50.986;6.990;2024-01-15T02:36:48;37.73;;;12.80;;
68089;SDS011;54880;50.986;6.990;2024-01-15T02:39:13;37.47;;;13.63;;
68089;SDS011;54880;50.986;6.990;2024-01-15T02:41:38;32.43;;;12.23;;
68089;SDS011;54880;50.986;6.990;2024-01-15T02:44:03;37.73;;;12.70;;
68089;SDS011;54880;50.986;6.990;2024-01-15T02:46:29;34.07;;;13.53;;
68089;SDS011;54880;50.986;6.990;2024-01-15T02:48:54;37.60;;;14.00;;
68089;SDS011;54880;50.986;6.990;2024-01-15T02:51:19;34.57;;;12.23;;
68089;SDS011;54880;50.986;6.990;2024-01-15T02:53:44;37.37;;;12.97;;
68089;SDS011;54880;50.986;6.990;2024-01-15T02:56:10;40.43;;;13.50;;
68089;SDS011;54880;50.986;6.990;2024-01-15T02:58:35;30.40;;;11.50;;
68089;SDS011;54880;50.986;6.990;2024-01-15T03:01:00;37.00;;;12.47;;
68089;SDS011;54880;50.986;6.990;2024-01-15T03:03:25;32.87;;;11.47;;
68089;SDS011;54880;50.986;6.990;2024-01-15T03:05:51;37.93;;;12.57;;
68089;SDS011;54880;50.986;6.990;2024-01-15T03:08:16;43.17;;;14.20;;
68089;SDS011;54880;50.986;6.990;2024-01-15T03:10:42;34.17;;;12.30;;
68089;SDS011;54880;50.986;6.990;2024-01-15T03:13:07;33.80;;;13.27;;
68089;SDS011;54880;50.986;6.990;2024-01-15T03:15:32;32.83;;;12.80;;
68089;SDS011;54880;50.986;6.990;2024-01-15T03:17:58;39.80;;;13.83;;
68089;SDS011;54880;50.986;6.990;2024-01-15T03:20:23;35.57;;;12.10;;
68089;SDS011;54880;50.986;6.990;2024-01-15T03:22:48;35.80;;;11.93;;
68089;SDS011;54880;50.986;6.990;2024-01-15T03:25:14;36.35;;;12.45;;
68089;SDS011;54880;50.986;6.990;2024-01-15T03:27:39;34.28;;;11.73;;
68089;SDS011;54880;50.986;6.990;2024-01-15T03:30:04;37.50;;;13.65;;
68089;SDS011;54880;50.986;6.990;2024-01-15T03:32:30;32.40;;;10.85;;
68089;SDS011;54880;50.986;6.990;2024-01-15T03:34:55;33.33;;;11.43;;
68089;SDS011;54880;50.986;6.990;2024-01-15T03:37:20;30.47;;;10.97;;
68089;SDS011;54880;50.986;6.990;2024-01-15T03:39:46;30.07;;;11.57;;
68089;SDS011;54880;50.986;6.990;2024-01-15T03:42:11;33.73;;;11.40;;
68089;SDS011;54880;50.986;6.990;2024-01-15T03:44:36;33.47;;;12.03;;
68089;SDS011;54880;50.986;6.990;2024-01-15T03:47:01;34.83;;;12.70;;
68089;SDS011;54880;50.986;6.990;2024-01-15T03:49:27;27.87;;;10.80;;
68089;SDS011;54880;50.986;6.990;2024-01-15T03:51:52;30.97;;;11.80;;
68089;SDS011;54880;50.986;6.990;2024-01-15T03:54:17;33.30;;;11.87;;
68089;SDS011;54880;50.986;6.990;2024-01-15T03:56:42;30.97;;;12.20;;
68089;SDS011;54880;50.986;6.990;2024-01-15T03:59:08;33.97;;;12.93;;
68089;SDS011;54880;50.986;6.990;2024-01-15T04:01:33;31.03;;;11.67;;
68089;SDS011;54880;50.986;6.990;2024-01-15T04:03:58;36.80;;;13.73;;
68089;SDS011;54880;50.986;6.990;2024-01-15T04:06:24;33.57;;;12.87;;
68089;SDS011;54880;50.986;6.990;2024-01-15T04:08:49;29.20;;;11.37;;
68089;SDS011;54880;50.986;6.990;2024-01-15T04:11:14;31.77;;;13.03;;
68089;SDS011;54880;50.986;6.990;2024-01-15T04:13:40;35.67;;;13.43;;
68089;SDS011;54880;50.986;6.990;2024-01-15T04:16:05;36.00;;;14.00;;
68089;SDS011;54880;50.986;6.990;2024-01-15T04:18:30;39.37;;;13.20;;
68089;SDS011;54880;50.986;6.990;2024-01-15T04:20:55;45.83;;;13.37;;
68089;SDS011;54880;50.986;6.990;2024-01-15T04:23:21;34.73;;;12.97;;
68089;SDS011;54880;50.986;6.990;2024-01-15T04:25:46;35.20;;;10.87;;
68089;SDS011;54880;50.986;6.990;2024-01-15T04:28:11;37.63;;;12.60;;
68089;SDS011;54880;50.986;6.990;2024-01-15T04:30:37;27.58;;;10.63;;
68089;SDS011;54880;50.986;6.990;2024-01-15T04:33:02;32.28;;;11.85;;
68089;SDS011;54880;50.986;6.990;2024-01-15T04:35:27;29.80;;;11.75;;
68089;SDS011;54880;50.986;6.990;2024-01-15T04:37:52;34.38;;;12.15;;
68089;SDS011;54880;50.986;6.990;2024-01-15T04:40:18;27.57;;;11.27;;
68089;SDS011;54880;50.986;6.990;2024-01-15T04:42:43;32.40;;;12.40;;
68089;SDS011;54880;50.986;6.990;2024-01-15T04:45:10;32.53;;;12.52;;
68089;SDS011;54880;50.986;6.990;2024-01-15T04:47:36;30.57;;;12.33;;
68089;SDS011;54880;50.986;6.990;2024-01-15T04:50:02;36.30;;;13.30;;
68089;SDS011;54880;50.986;6.990;2024-01-15T04:52:27;31.47;;;12.30;;
68089;SDS011;54880;50.986;6.990;2024-01-15T04:54:52;31.70;;;11.90;;
68089;SDS011;54880;50.986;6.990;2024-01-15T04:57:18;29.27;;;12.70;;
68089;SDS011;54880;50.986;6.990;2024-01-15T04:59:43;34.90;;;11.80;;
68089;SDS011;54880;50.986;6.990;2024-01-15T05:02:08;28.90;;;11.77;;
68089;SDS011;54880;50.986;6.990;2024-01-15T05:04:33;30.87;;;9.53;;
68089;SDS011;54880;50.986;6.990;2024-01-15T05:06:59;25.95;;;10.48;;
68089;SDS011;54880;50.986;6.990;2024-01-15T05:09:24;27.33;;;10.07;;
68089;SDS011;54880;50.986;6.990;2024-01-15T05:11:49;28.80;;;10.83;;
68089;SDS011;54880;50.986;6.990;2024-01-15T05:14:14;27.48;;;10.20;;
68089;SDS011;54880;50.986;6.990;2024-01-15T05:16:44;26.07;;;10.23;;
68089;SDS011;54880;50.986;6.990;2024-01-15T05:19:11;30.50;;;10.37;;
68089;SDS011;54880;50.986;6.990;2024-01-15T05:21:36;33.80;;;10.38;;
68089;SDS011;54880;50.986;6.990;2024-01-15T05:24:01;31.87;;;10.83;;
68089;SDS011;54880;50.986;6.990;2024-01-15T05:26:27;26.37;;;10.40;;
68089;SDS011;54880;50.986;6.990;2024-01-15T05:28:52;26.45;;;9.95;;
68089;SDS011;54880;50.986;6.990;2024-01-15T05:31:17;27.57;;;9.83;;
68089;SDS011;54880;50.986;6.990;2024-01-15T05:33:42;23.80;;;9.10;;
68089;SDS011;54880;50.986;6.990;2024-01-15T05:36:08;26.13;;;9.88;;
68089;SDS011;54880;50.986;6.990;2024-01-15T05:38:33;28.30;;;10.37;;
68089;SDS011;54880;50.986;6.990;2024-01-15T05:40:58;25.73;;;9.40;;
68089;SDS011;54880;50.986;6.990;2024-01-15T05:43:24;24.93;;;8.63;;
68089;SDS011;54880;50.986;6.990;2024-01-15T05:45:49;23.07;;;9.20;;
68089;SDS011;54880;50.986;6.990;2024-01-15T05:48:14;24.97;;;9.07;;
68089;SDS011;54880;50.986;6.990;2024-01-15T05:50:41;15.07;;;5.60;;
68089;SDS011;54880;50.986;6.990;2024-01-15T05:53:06;17.73;;;7.00;;
68089;SDS011;54880;50.986;6.990;2024-01-15T05:55:31;23.00;;;7.93;;
68089;SDS011;54880;50.986;6.990;2024-01-15T05:57:56;19.27;;;7.13;;
68089;SDS011;54880;50.986;6.990;2024-01-15T06:00:22;16.00;;;6.27;;
68089;SDS011;54880;50.986;6.990;2024-01-15T06:02:47;21.55;;;6.75;;
68089;SDS011;54880;50.986;6.990;2024-01-15T06:05:12;20.43;;;6.13;;
68089;SDS011;54880;50.986;6.990;2024-01-15T06:07:37;21.27;;;6.87;;
68089;SDS011;54880;50.986;6.990;2024-01-15T06:10:03;16.60;;;6.88;;
68089;SDS011;54880;50.986;6.990;2024-01-15T06:12:29;14.40;;;6.20;;
68089;SDS011;54880;50.986;6.990;2024-01-15T06:14:55;16.33;;;7.23;;
68089;SDS011;54880;50.986;6.990;2024-01-15T06:17:20;18.10;;;7.00;;
68089;SDS011;54880;50.986;6.990;2024-01-15T06:19:45;20.10;;;7.13;;
68089;SDS011;54880;50.986;6.990;2024-01-15T06:22:10;21.87;;;7.77;;
68089;SDS011;54880;50.986;6.990;2024-01-15T06:24:36;19.80;;;8.10;;
68089;SDS011;54880;50.986;6.990;2024-01-15T06:27:01;24.07;;;9.00;;
68089;SDS011;54880;50.986;6.990;2024-01-15T06:29:26;21.87;;;8.80;;
68089;SDS011;54880;50.986;6.990;2024-01-15T06:31:52;25.88;;;9.60;;
68089;SDS011;54880;50.986;6.990;2024-01-15T06:34:17;23.50;;;8.90;;
68089;SDS011;54880;50.986;6.990;2024-01-15T06:36:43;21.53;;;9.07;;
68089;SDS011;54880;50.986;6.990;2024-01-15T06:39:08;21.97;;;9.13;;
68089;SDS011;54880;50.986;6.990;2024-01-15T06:41:35;22.15;;;9.63;;
68089;SDS011;54880;50.986;6.990;2024-01-15T06:44:00;20.73;;;7.70;;
68089;SDS011;54880;50.986;6.990;2024-01-15T06:46:26;21.03;;;7.97;;
68089;SDS011;54880;50.986;6.990;2024-01-15T06:48:51;19.07;;;8.30;;
68089;SDS011;54880;50.986;6.990;2024-01-15T06:51:16;24.07;;;9.43;;
68089;SDS011;54880;50.986;6.990;2024-01-15T06:53:41;23.10;;;9.33;;
68089;SDS011;54880;50.986;6.990;2024-01-15T06:56:07;24.63;;;8.50;;
68089;SDS011;54880;50.986;6.990;2024-01-15T06:58:32;19.80;;;8.83;;
68089;SDS011;54880;50.986;6.990;2024-01-15T07:00:57;20.57;;;9.70;;
68089;SDS011;54880;50.986;6.990;2024-01-15T07:03:23;22.87;;;10.30;;
68089;SDS011;54880;50.986;6.990;2024-01-15T07:05:48;26.60;;;9.67;;
68089;SDS011;54880;50.986;6.990;2024-01-15T07:08:13;23.37;;;10.33;;
68089;SDS011;54880;50.986;6.990;2024-01-15T07:10:38;23.53;;;10.17;;
68089;SDS011;54880;50.986;6.990;2024-01-15T07:13:04;27.23;;;9.90;;
68089;SDS011;54880;50.986;6.990;2024-01-15T07:15:30;23.63;;;10.40;;
68089;SDS011;54880;50.986;6.990;2024-01-15T07:17:55;25.23;;;10.17;;
68089;SDS011;54880;50.986;6.990;2024-01-15T07:20:21;27.33;;;9.77;;
68089;SDS011;54880;50.986;6.990;2024-01-15T07:22:46;23.30;;;10.40;;
68089;SDS011;54880;50.986;6.990;2024-01-15T07:25:12;24.10;;;10.33;;
68089;SDS011;54880;50.986;6.990;2024-01-15T07:27:37;22.60;;;8.88;;
68089;SDS011;54880;50.986;6.990;2024-01-15T07:30:03;22.17;;;8.53;;
68089;SDS011;54880;50.986;6.990;2024-01-15T07:32:30;23.67;;;10.10;;
68089;SDS011;54880;50.986;6.990;2024-01-15T07:34:56;26.90;;;10.70;;
68089;SDS011;54880;50.986;6.990;2024-01-15T07:37:21;25.27;;;11.03;;
68089;SDS011;54880;50.986;6.990;2024-01-15T07:39:48;22.08;;;9.57;;
68089;SDS011;54880;50.986;6.990;2024-01-15T07:42:13;20.20;;;8.53;;
68089;SDS011;54880;50.986;6.990;2024-01-15T07:44:38;23.40;;;9.87;;
68089;SDS011;54880;50.986;6.990;2024-01-15T07:47:04;18.93;;;8.10;;
68089;SDS011;54880;50.986;6.990;2024-01-15T07:49:29;20.50;;;9.40;;
68089;SDS011;54880;50.986;6.990;2024-01-15T07:51:54;23.87;;;9.80;;
68089;SDS011;54880;50.986;6.990;2024-01-15T07:54:19;25.07;;;10.17;;
68089;SDS011;54880;50.986;6.990;2024-01-15T07:56:58;26.10;;;9.50;;
68089;SDS011;54880;50.986;6.990;2024-01-15T07:59:23;22.50;;;9.50;;
68089;SDS011;54880;50.986;6.990;2024-01-15T08:01:49;25.10;;;10.73;;
68089;SDS011;54880;50.986;6.990;2024-01-15T08:04:14;24.27;;;9.63;;
68089;SDS011;54880;50.986;6.990;2024-01-15T08:06:39;32.23;;;11.20;;
68089;SDS011;54880;50.986;6.990;2024-01-15T08:09:05;29.67;;;11.90;;
68089;SDS011;54880;50.986;6.990;2024-01-15T08:11:30;37.85;;;15.43;;
68089;SDS011;54880;50.986;6.990;2024-01-15T08:13:55;35.33;;;12.13;;
68089;SDS011;54880;50.986;6.990;2024-01-15T08:16:21;42.38;;;16.13;;
68089;SDS011;54880;50.986;6.990;2024-01-15T08:18:46;31.90;;;13.77;;
68089;SDS011;54880;50.986;6.990;2024-01-15T08:21:12;27.47;;;11.37;;
68089;SDS011;54880;50.986;6.990;2024-01-15T08:23:37;26.43;;;12.03;;
68089;SDS011;54880;50.986;6.990;2024-01-15T08:26:02;23.83;;;11.30;;
68089;SDS011;54880;50.986;6.990;2024-01-15T08:28:27;25.50;;;11.40;;
68089;SDS011;54880;50.986;6.990;2024-01-15T08:30:53;26.27;;;10.73;;
68089;SDS011;54880;50.986;6.990;2024-01-15T08:33:18;26.87;;;11.17;;
68089;SDS011;54880;50.986;6.990;2024-01-15T08:35:43;25.33;;;10.07;;
68089;SDS011;54880;50.986;6.990;2024-01-15T08:38:08;26.80;;;11.47;;
68089;SDS011;54880;50.986;6.990;2024-01-15T08:40:34;24.30;;;9.67;;
68089;SDS011;54880;50.986;6.990;2024-01-15T08:42:59;23.43;;;10.77;;
68089;SDS011;54880;50.986;6.990;2024-01-15T08:45:24;23.50;;;9.53;;
68089;SDS011;54880;50.986;6.990;2024-01-15T08:47:49;25.17;;;9.00;;
68089;SDS011;54880;50.986;6.990;2024-01-15T08:50:15;24.33;;;9.70;;
68089;SDS011;54880;50.986;6.990;2024-01-15T08:52:40;24.90;;;11.13;;
68089;SDS011;54880;50.986;6.990;2024-01-15T08:55:05;21.10;;;8.97;;
68089;SDS011;54880;50.986;6.990;2024-01-15T08:57:32;18.38;;;8.65;;
68089;SDS011;54880;50.986;6.990;2024-01-15T08:59:57;21.30;;;7.67;;
68089;SDS011;54880;50.986;6.990;2024-01-15T09:02:24;33.13;;;11.50;;
68089;SDS011;54880;50.986;6.990;2024-01-15T09:04:49;20.27;;;9.53;;
68089;SDS011;54880;50.986;6.990;2024-01-15T09:07:14;23.57;;;9.93;;
68089;SDS011;54880;50.986;6.990;2024-01-15T09:09:39;24.83;;;10.23;;
68089;SDS011;54880;50.986;6.990;2024-01-15T09:12:05;30.10;;;10.90;;
68089;SDS011;54880;50.986;6.990;2024-01-15T09:14:30;24.43;;;9.17;;
68089;SDS011;54880;50.986;6.990;2024-01-15T09:16:55;20.03;;;8.97;;
68089;SDS011;54880;50.986;6.990;2024-01-15T09:19:22;24.63;;;10.52;;
68089;SDS011;54880;50.986;6.990;2024-01-15T09:21:47;20.30;;;9.63;;
68089;SDS011;54880;50.986;6.990;2024-01-15T09:24:12;19.93;;;8.93;;
68089;SDS011;54880;50.986;6.990;2024-01-15T09:26:37;24.73;;;9.83;;
68089;SDS011;54880;50.986;6.990;2024-01-15T09:29:03;20.40;;;9.80;;
68089;SDS011;54880;50.986;6.990;2024-01-15T09:31:28;20.57;;;9.03;;
68089;SDS011;54880;50.986;6.990;2024-01-15T09:33:53;19.97;;;7.60;;
68089;SDS011;54880;50.986;6.990;2024-01-15T09:36:21;16.65;;;6.95;;
68089;SDS011;54880;50.986;6.990;2024-01-15T09:38:47;17.23;;;7.28;;
68089;SDS011;54880;50.986;6.990;2024-01-15T09:41:12;16.63;;;7.60;;
68089;SDS011;54880;50.986;6.990;2024-01-15T09:43:38;15.87;;;5.97;;
68089;SDS011;54880;50.986;6.990;2024-01-15T09:46:03;14.03;;;7.03;;
68089;SDS011;54880;50.986;6.990;2024-01-15T09:48:28;15.83;;;6.80;;
68089;SDS011;54880;50.986;6.990;2024-01-15T09:50:54;17.47;;;6.90;;
68089;SDS011;54880;50.986;6.990;2024-01-15T09:53:19;13.33;;;6.10;;
68089;SDS011;54880;50.986;6.990;2024-01-15T09:55:46;14.15;;;6.22;;
68089;SDS011;54880;50.986;6.990;2024-01-15T09:58:11;16.40;;;6.72;;
68089;SDS011;54880;50.986;6.990;2024-01-15T10:00:37;12.25;;;5.70;;
68089;SDS011;54880;50.986;6.990;2024-01-15T10:03:04;15.95;;;5.88;;
68089;SDS011;54880;50.986;6.990;2024-01-15T10:05:30;16.63;;;6.82;;
68089;SDS011;54880;50.986;6.990;2024-01-15T10:07:55;12.37;;;5.77;;
68089;SDS011;54880;50.986;6.990;2024-01-15T10:10:21;13.48;;;5.93;;
68089;SDS011;54880;50.986;6.990;2024-01-15T10:12:47;10.50;;;4.93;;
68089;SDS011;54880;50.986;6.990;2024-01-15T10:15:12;13.00;;;5.10;;
68089;SDS011;54880;50.986;6.990;2024-01-15T10:17:38;13.13;;;5.57;;
68089;SDS011;54880;50.986;6.990;2024-01-15T10:20:07;14.90;;;6.00;;
68089;SDS011;54880;50.986;6.990;2024-01-15T10:22:32;13.27;;;5.85;;
68089;SDS011;54880;50.986;6.990;2024-01-15T10:24:57;12.80;;;5.33;;
68089;SDS011;54880;50.986;6.990;2024-01-15T10:27:23;13.00;;;6.07;;
68089;SDS011;54880;50.986;6.990;2024-01-15T10:29:49;13.90;;;4.90;;
68089;SDS011;54880;50.986;6.990;2024-01-15T10:32:14;10.47;;;4.70;;
68089;SDS011;54880;50.986;6.990;2024-01-15T10:34:40;12.83;;;6.07;;
68089;SDS011;54880;50.986;6.990;2024-01-15T10:37:07;11.32;;;5.45;;
68089;SDS011;54880;50.986;6.990;2024-01-15T10:39:32;10.77;;;4.72;;
68089;SDS011;54880;50.986;6.990;2024-01-15T10:41:57;11.50;;;4.93;;
68089;SDS011;54880;50.986;6.990;2024-01-15T10:44:22;10.67;;;3.23;;
68089;SDS011;54880;50.986;6.990;2024-01-15T10:46:48;11.20;;;3.03;;
68089;SDS011;54880;50.986;6.990;2024-01-15T10:49:13;10.47;;;4.37;;
68089;SDS011;54880;50.986;6.990;2024-01-15T10:51:38;10.80;;;4.43;;
68089;SDS011;54880;50.986;6.990;2024-01-15T10:54:04;12.57;;;4.47;;
68089;SDS011;54880;50.986;6.990;2024-01-15T10:56:30;9.18;;;3.78;;
68089;SDS011;54880;50.986;6.990;2024-01-15T10:58:56;9.13;;;3.70;;
68089;SDS011;54880;50.986;6.990;2024-01-15T11:01:22;8.60;;;3.80;;
68089;SDS011;54880;50.986;6.990;2024-01-15T11:03:47;10.27;;;3.53;;
68089;SDS011;54880;50.986;6.990;2024-01-15T11:06:16;10.53;;;3.87;;
68089;SDS011;54880;50.986;6.990;2024-01-15T11:08:42;7.65;;;3.30;;
68089;SDS011;54880;50.986;6.990;2024-01-15T11:11:08;8.35;;;3.45;;
68089;SDS011;54880;50.986;6.990;2024-01-15T11:18:26;8.83;;;3.20;;
68089;SDS011;54880;50.986;6.990;2024-01-15T11:23:48;9.07;;;2.45;;
68089;SDS011;54880;50.986;6.990;2024-01-15T11:32:03;9.18;;;2.40;;
68089;SDS011;54880;50.986;6.990;2024-01-15T11:37:16;5.90;;;2.07;;
68089;SDS011;54880;50.986;6.990;2024-01-15T11:39:42;5.93;;;2.17;;
68089;SDS011;54880;50.986;6.990;2024-01-15T11:42:09;6.72;;;2.28;;
68089;SDS011;54880;50.986;6.990;2024-01-15T11:44:34;8.57;;;2.10;;
68089;SDS011;54880;50.986;6.990;2024-01-15T11:47:03;9.40;;;2.33;;
68089;SDS011;54880;50.986;6.990;2024-01-15T11:52:06;8.35;;;3.08;;
68089;SDS011;54880;50.986;6.990;2024-01-15T11:54:32;9.65;;;3.40;;
68089;SDS011;54880;50.986;6.990;2024-01-15T11:57:00;6.88;;;3.13;;
68089;SDS011;54880;50.986;6.990;2024-01-15T11:59:27;7.27;;;3.13;;
68089;SDS011;54880;50.986;6.990;2024-01-15T12:01:52;8.70;;;3.67;;
68089;SDS011;54880;50.986;6.990;2024-01-15T12:04:20;8.50;;;3.70;;
68089;SDS011;54880;50.986;6.990;2024-01-15T12:06:45;9.88;;;4.03;;
68089;SDS011;54880;50.986;6.990;2024-01-15T12:09:10;9.57;;;4.37;;
68089;SDS011;54880;50.986;6.990;2024-01-15T12:11:36;11.57;;;4.72;;
68089;SDS011;54880;50.986;6.990;2024-01-15T12:14:01;9.87;;;3.87;;
68089;SDS011;54880;50.986;6.990;2024-01-15T12:16:26;11.90;;;5.23;;
68089;SDS011;54880;50.986;6.990;2024-01-15T12:18:52;11.93;;;5.27;;
68089;SDS011;54880;50.986;6.990;2024-01-15T12:21:17;11.17;;;5.33;;
68089;SDS011;54880;50.986;6.990;2024-01-15T12:23:45;13.40;;;5.40;;
68089;SDS011;54880;50.986;6.990;2024-01-15T12:26:10;10.38;;;5.22;;
68089;SDS011;54880;50.986;6.990;2024-01-15T12:28:36;11.20;;;5.17;;
68089;SDS011;54880;50.986;6.990;2024-01-15T12:31:01;11.97;;;5.93;;
68089;SDS011;54880;50.986;6.990;2024-01-15T12:33:30;16.10;;;5.80;;
68089;SDS011;54880;50.986;6.990;2024-01-15T12:35:55;14.70;;;6.63;;
68089;SDS011;54880;50.986;6.990;2024-01-15T12:38:20;23.50;;;6.90;;
68089;SDS011;54880;50.986;6.990;2024-01-15T12:40:46;11.03;;;4.50;;
68089;SDS011;54880;50.986;6.990;2024-01-15T12:43:11;17.70;;;5.90;;
68089;SDS011;54880;50.986;6.990;2024-01-15T12:45:36;16.33;;;7.47;;
68089;SDS011;54880;50.986;6.990;2024-01-15T12:48:03;15.85;;;7.60;;
68089;SDS011;54880;50.986;6.990;2024-01-15T12:50:28;11.80;;;5.28;;
68089;SDS011;54880;50.986;6.990;2024-01-15T12:52:54;22.63;;;5.45;;
68089;SDS011;54880;50.986;6.990;2024-01-15T12:55:19;11.75;;;3.80;;
68089;SDS011;54880;50.986;6.990;2024-01-15T12:57:44;13.13;;;5.47;;
68089;SDS011;54880;50.986;6.990;2024-01-15T13:00:10;12.97;;;4.67;;
68089;SDS011;54880;50.986;6.990;2024-01-15T13:02:37;13.27;;;4.53;;
68089;SDS011;54880;50.986;6.990;2024-01-15T13:05:03;14.03;;;4.83;;
68089;SDS011;54880;50.986;6.990;2024-01-15T13:07:29;13.40;;;3.58;;
68089;SDS011;54880;50.986;6.990;2024-01-15T13:09:54;15.70;;;4.50;;
68089;SDS011;54880;50.986;6.990;2024-01-15T13:12:20;12.33;;;5.07;;
68089;SDS011;54880;50.986;6.990;2024-01-15T13:14:45;17.42;;;5.35;;
68089;SDS011;54880;50.986;6.990;2024-01-15T13:17:10;12.50;;;4.10;;
68089;SDS011;54880;50.986;6.990;2024-01-15T13:19:36;16.23;;;4.50;;
68089;SDS011;54880;50.986;6.990;2024-01-15T13:22:01;12.27;;;4.60;;
68089;SDS011;54880;50.986;6.990;2024-01-15T13:24:26;12.33;;;4.50;;
68089;SDS011;54880;50.986;6.990;2024-01-15T13:26:51;8.60;;;3.40;;
68089;SDS011;54880;50.986;6.990;2024-01-15T13:29:17;10.27;;;3.07;;
68089;SDS011;54880;50.986;6.990;2024-01-15T13:31:42;12.00;;;4.63;;
68089;SDS011;54880;50.986;6.990;2024-01-15T13:34:07;8.23;;;2.77;;
68089;SDS011;54880;50.986;6.990;2024-01-15T13:36:34;11.05;;;3.28;;
68089;SDS011;54880;50.986;6.990;2024-01-15T13:38:59;9.10;;;3.20;;
68089;SDS011;54880;50.986;6.990;2024-01-15T13:41:24;10.30;;;2.83;;
68089;SDS011;54880;50.986;6.990;2024-01-15T13:43:52;11.98;;;2.90;;
68089;SDS011;54880;50.986;6.990;2024-01-15T13:46:18;7.47;;;3.20;;
68089;SDS011;54880;50.986;6.990;2024-01-15T13:48:43;7.15;;;2.60;;
68089;SDS011;54880;50.986;6.990;2024-01-15T13:51:09;13.23;;;3.80;;
68089;SDS011;54880;50.986;6.990;2024-01-15T13:53:34;13.63;;;4.20;;
68089;SDS011;54880;50.986;6.990;2024-01-15T13:55:59;14.50;;;6.47;;
68089;SDS011;54880;50.986;6.990;2024-01-15T13:58:25;10.63;;;3.20;;
68089;SDS011;54880;50.986;6.990;2024-01-15T14:00:51;7.47;;;2.87;;
68089;SDS011;54880;50.986;6.990;2024-01-15T14:03:17;8.98;;;2.78;;
68089;SDS011;54880;50.986;6.990;2024-01-15T14:05:42;11.07;;;3.27;;
68089;SDS011;54880;50.986;6.990;2024-01-15T14:08:08;10.02;;;3.45;;
68089;SDS011;54880;50.986;6.990;2024-01-15T14:10:33;9.73;;;2.87;;
68089;SDS011;54880;50.986;6.990;2024-01-15T14:12:58;6.70;;;2.27;;
68089;SDS011;54880;50.986;6.990;2024-01-15T14:15:23;5.27;;;2.27;;
68089;SDS011;54880;50.986;6.990;2024-01-15T14:17:49;7.78;;;2.08;;
68089;SDS011;54880;50.986;6.990;2024-01-15T14:20:14;7.03;;;2.40;;
68089;SDS011;54880;50.986;6.990;2024-01-15T14:22:39;6.82;;;2.10;;
68089;SDS011;54880;50.986;6.990;2024-01-15T14:25:04;5.88;;;2.03;;
68089;SDS011;54880;50.986;6.990;2024-01-15T14:27:30;5.40;;;1.98;;
68089;SDS011;54880;50.986;6.990;2024-01-15T14:29:55;8.17;;;2.47;;
68089;SDS011;54880;50.986;6.990;2024-01-15T14:32:21;8.00;;;2.83;;
68089;SDS011;54880;50.986;6.990;2024-01-15T14:34:46;6.47;;;2.30;;
68089;SDS011;54880;50.986;6.990;2024-01-15T14:37:11;5.93;;;2.20;;
68089;SDS011;54880;50.986;6.990;2024-01-15T14:39:36;7.03;;;2.50;;